Time;durP1;ratioP1;P1;durP2;ratioP2;P2;SDS_P1;SDS_P2;PMS_P1;PMS_P2;Temp;Humidity;BMP_temperature;BMP_pressure;BME280_temperature;BME280_humidity;BME280_pressure;Samples;Min_cycle;Max_cycle;Signal;HPM_P1;HPM_P2
2023/01/01 00:00:10;;;;;;;15.70;6.45;;;17.50;57.60;;;;;;5044177;28;20029;-58
2023/01/01 00:02:36;;;;;;;11.18;6.25;;;17.50;58.00;;;;;;5042164;28;20098;-61
2023/01/01 00:05:03;;;;;;;20.83;9.90;;;17.50;57.80;;;;;;5046872;28;20029;-61
2023/01/01 00:07:29;;;;;;;17.08;7.45;;;17.50;58.00;;;;;;5044693;28;20388;-58
2023/01/01 00:12:39;;;;;;;12.30;7.93;;;17.60;57.80;;;;;;5046763;28;20051;-59
2023/01/01 00:15:05;;;;;;;16.92;7.10;;;17.60;57.60;;;;;;5043385;28;20087;-57
2023/01/01 00:17:31;;;;;;;9.85;7.07;;;17.60;57.70;;;;;;5041108;28;20037;-60
2023/01/01 00:19:57;;;;;;;26.77;13.15;;;17.60;57.70;;;;;;5048478;28;20060;-61
2023/01/01 00:22:23;;;;;;;24.60;13.65;;;17.60;57.80;;;;;;5043158;28;20033;-61
2023/01/01 00:24:49;;;;;;;20.58;9.95;;;17.60;57.80;;;;;;5035987;28;20035;-61
2023/01/01 00:27:15;;;;;;;9.60;4.53;;;17.60;57.60;;;;;;5041402;28;20026;-58
2023/01/01 00:29:40;;;;;;;8.40;3.95;;;17.60;57.40;;;;;;5051417;28;20090;-58
2023/01/01 00:32:06;;;;;;;6.32;3.30;;;17.60;57.70;;;;;;5045415;28;20025;-57
2023/01/01 00:34:32;;;;;;;8.07;4.45;;;17.60;57.70;;;;;;5047882;28;20036;-58
2023/01/01 00:36:58;;;;;;;6.95;4.32;;;17.60;57.60;;;;;;5049107;28;20455;-58
2023/01/01 00:39:23;;;;;;;7.07;4.28;;;17.60;57.50;;;;;;5041807;28;20030;-58
2023/01/01 00:41:49;;;;;;;4.45;3.00;;;17.60;57.50;;;;;;5029838;28;20036;-58
2023/01/01 00:44:15;;;;;;;7.35;3.33;;;17.60;57.80;;;;;;5047751;28;20455;-58
2023/01/01 00:46:41;;;;;;;7.70;3.80;;;17.60;57.90;;;;;;5054923;28;20033;-58
2023/01/01 00:49:06;;;;;;;5.05;2.78;;;17.60;58.10;;;;;;5042373;28;20432;-61
2023/01/01 00:51:32;;;;;;;5.25;3.10;;;17.60;58.30;;;;;;5037445;28;20033;-58
2023/01/01 00:53:58;;;;;;;8.40;2.50;;;17.50;58.60;;;;;;5036398;28;20033;-61
2023/01/01 00:56:23;;;;;;;6.32;2.67;;;17.40;58.80;;;;;;5039824;28;20025;-58
2023/01/01 00:58:49;;;;;;;8.23;2.08;;;17.40;59.30;;;;;;5038536;28;20112;-61
2023/01/01 01:01:15;;;;;;;7.05;2.05;;;17.40;59.30;;;;;;5043033;28;20052;-58
2023/01/01 01:03:41;;;;;;;5.10;1.38;;;17.40;59.50;;;;;;5054784;28;20040;-61
2023/01/01 01:06:09;;;;;;;4.15;2.08;;;17.40;59.70;;;;;;5052790;28;20032;-58
2023/01/01 01:08:36;;;;;;;4.30;1.98;;;17.40;59.90;;;;;;5053750;28;20025;-61
2023/01/01 01:11:15;;;;;;;2.95;1.67;;;17.30;60.00;;;;;;5056997;28;20072;-61
2023/01/01 01:13:42;;;;;;;2.45;1.73;;;17.30;60.30;;;;;;5051578;28;20044;-58
2023/01/01 01:16:16;;;;;;;7.40;2.30;;;17.30;60.50;;;;;;5053455;28;20028;-61
2023/01/01 01:18:43;;;;;;;4.78;1.77;;;17.20;60.40;;;;;;5051796;28;20022;-58
2023/01/01 01:21:09;;;;;;;2.92;1.30;;;17.20;60.30;;;;;;5052705;28;20033;-59
2023/01/01 01:23:35;;;;;;;3.20;1.73;;;17.20;60.10;;;;;;5056127;28;20032;-58
2023/01/01 01:26:10;;;;;;;4.05;1.00;;;17.20;59.90;;;;;;5055456;28;20099;-58
2023/01/01 01:28:35;;;;;;;4.63;1.42;;;17.20;59.70;;;;;;5045157;28;20025;-61
2023/01/01 01:31:01;;;;;;;1.60;0.73;;;17.20;59.50;;;;;;5053706;28;20025;-61
2023/01/01 01:33:27;;;;;;;2.58;1.25;;;17.20;60.00;;;;;;5050495;28;20052;-58
2023/01/01 01:35:53;;;;;;;4.55;1.65;;;17.20;59.50;;;;;;5048782;28;20384;-58
2023/01/01 01:38:18;;;;;;;1.98;1.05;;;17.10;59.70;;;;;;5055593;28;20040;-61
2023/01/01 01:40:44;;;;;;;2.65;0.80;;;17.10;59.70;;;;;;5055065;28;20577;-58
2023/01/01 01:43:29;;;;;;;0.75;0.75;;;17.10;59.90;;;;;;5042527;28;20395;-58
2023/01/01 01:46:05;;;;;;;3.65;0.93;;;17.10;59.90;;;;;;5044836;28;20472;-59
2023/01/01 01:48:39;;;;;;;2.35;1.20;;;17.10;59.90;;;;;;5051039;28;20018;-62
2023/01/01 01:51:06;;;;;;;4.38;1.33;;;17.00;59.40;;;;;;5056682;28;20066;-61
2023/01/01 01:53:40;;;;;;;0.70;0.70;;;17.00;59.30;;;;;;5050586;28;20084;-62
2023/01/01 01:56:10;;;;;;;1.83;0.90;;;17.10;59.60;;;;;;5052616;28;20539;-58
2023/01/01 01:58:36;;;;;;;2.45;1.35;;;17.00;59.60;;;;;;5051121;28;20072;-58
2023/01/01 02:01:02;;;;;;;1.48;0.95;;;17.00;59.50;;;;;;5050768;28;20036;-58
2023/01/01 02:03:46;;;;;;;1.70;0.57;;;17.00;59.50;;;;;;5049379;28;20533;-61
2023/01/01 02:06:12;;;;;;;1.02;0.93;;;17.00;59.60;;;;;;5046803;28;20037;-60
2023/01/01 02:08:38;;;;;;;6.53;0.82;;;17.00;59.60;;;;;;5049968;28;20030;-61
2023/01/01 02:11:04;;;;;;;2.78;1.05;;;17.00;59.40;;;;;;5050958;28;20091;-61
2023/01/01 02:13:30;;;;;;;3.95;0.85;;;17.00;59.40;;;;;;5045442;28;20437;-58
2023/01/01 02:16:14;;;;;;;1.58;1.23;;;17.00;59.30;;;;;;5047597;28;20501;-58
2023/01/01 02:18:48;;;;;;;3.40;0.85;;;17.10;59.20;;;;;;5045904;28;20048;-58
2023/01/01 02:21:22;;;;;;;6.18;1.52;;;17.00;58.90;;;;;;5049938;28;20040;-59
2023/01/01 02:24:25;;;;;;;3.50;0.95;;;17.00;58.70;;;;;;5054346;28;20480;-62
2023/01/01 02:27:01;;;;;;;1.52;0.90;;;17.00;59.00;;;;;;5050747;28;20106;-59
2023/01/01 02:29:51;;;;;;;1.75;0.93;;;17.00;58.90;;;;;;5050926;28;20021;-62
2023/01/01 02:32:26;;;;;;;2.05;1.17;;;17.00;59.10;;;;;;5045655;28;20473;-59
2023/01/01 02:35:36;;;;;;;3.63;1.02;;;17.00;59.20;;;;;;5046347;28;20100;-62
2023/01/01 02:38:22;;;;;;;1.52;0.93;;;17.00;59.00;;;;;;5051675;28;20044;-60
2023/01/01 02:40:50;;;;;;;2.90;1.20;;;17.00;58.60;;;;;;5043336;28;20468;-62
2023/01/01 02:43:16;;;;;;;2.83;0.82;;;16.90;58.70;;;;;;5050825;28;20105;-59
2023/01/01 02:45:42;;;;;;;0.90;0.90;;;17.00;58.40;;;;;;5050860;28;20037;-59
2023/01/01 02:48:53;;;;;;;3.15;0.90;;;17.00;58.30;;;;;;5054267;28;20025;-62
2023/01/01 02:51:25;;;;;;;3.95;0.88;;;17.00;58.20;;;;;;5044568;28;20036;-59
2023/01/01 02:54:09;;;;;;;6.10;0.88;;;17.00;57.90;;;;;;5049913;28;20033;-59
2023/01/01 02:56:47;;;;;;;1.17;0.60;;;17.00;58.70;;;;;;5055539;28;20032;-59
2023/01/01 03:02:23;;;;;;;0.75;0.60;;;17.00;57.60;;;;;;5050307;28;20075;-59
2023/01/01 03:05:08;;;;;;;6.40;0.73;;;17.00;57.60;;;;;;5029041;28;20056;-59
2023/01/01 03:08:06;;;;;;;3.33;1.45;;;17.00;57.10;;;;;;5049761;28;20036;-59
2023/01/01 03:10:44;;;;;;;2.85;1.55;;;17.00;56.90;;;;;;5010152;28;20043;-59
2023/01/01 03:13:26;;;;;;;1.67;1.02;;;17.10;57.30;;;;;;5047483;28;20056;-62
2023/01/01 03:15:55;;;;;;;1.88;1.15;;;17.10;57.30;;;;;;5052106;28;20036;-62
2023/01/01 03:18:31;;;;;;;3.80;0.68;;;17.10;57.10;;;;;;5048425;28;20055;-59
2023/01/01 03:20:59;;;;;;;0.70;0.70;;;17.10;57.00;;;;;;5049598;28;20044;-59
2023/01/01 03:23:30;;;;;;;3.65;1.42;;;17.00;56.90;;;;;;5041990;28;20041;-59
2023/01/01 03:25:59;;;;;;;4.55;0.80;;;17.10;56.60;;;;;;5047589;28;20021;-59
2023/01/01 03:28:29;;;;;;;2.28;1.17;;;17.00;56.80;;;;;;5045764;28;20473;-59
2023/01/01 03:30:56;;;;;;;1.73;0.80;;;17.00;56.60;;;;;;5051227;28;20472;-59
2023/01/01 03:33:37;;;;;;;0.93;0.63;;;17.00;56.40;;;;;;5057531;28;20452;-59
2023/01/01 03:36:08;;;;;;;1.75;0.82;;;17.00;56.30;;;;;;5041345;28;20058;-59
2023/01/01 03:38:53;;;;;;;1.38;0.70;;;17.00;56.50;;;;;;5061831;28;20035;-62
2023/01/01 03:41:37;;;;;;;0.90;0.88;;;17.00;56.60;;;;;;5043687;28;20112;-62
2023/01/01 03:44:23;;;;;;;1.90;1.10;;;17.00;56.60;;;;;;5049111;28;20032;-59
2023/01/01 03:46:49;;;;;;;1.85;1.05;;;17.00;56.80;;;;;;5056967;28;20055;-59
2023/01/01 03:49:16;;;;;;;1.50;0.95;;;16.90;56.60;;;;;;5049614;28;20048;-59
2023/01/01 03:52:00;;;;;;;1.23;0.77;;;16.90;57.00;;;;;;5054593;28;20040;-62
2023/01/01 03:54:49;;;;;;;2.35;0.70;;;16.90;57.10;;;;;;5049135;28;20025;-59
2023/01/01 03:57:43;;;;;;;2.25;0.90;;;16.90;57.10;;;;;;5053349;28;20086;-62
2023/01/01 04:00:21;;;;;;;1.75;0.65;;;16.90;57.20;;;;;;5046275;28;20384;-59
2023/01/01 04:02:47;;;;;;;2.08;0.88;;;16.80;57.20;;;;;;5062290;28;20044;-59
2023/01/01 04:05:15;;;;;;;3.30;0.70;;;16.80;57.20;;;;;;5048789;28;20021;-59
2023/01/01 04:07:41;;;;;;;1.65;0.80;;;16.80;57.20;;;;;;5048306;28;20029;-59
2023/01/01 04:10:17;;;;;;;1.40;0.70;;;16.80;57.90;;;;;;5059524;28;20075;-59
2023/01/01 04:12:51;;;;;;;0.57;0.57;;;16.80;57.30;;;;;;5049711;28;20411;-59
2023/01/01 04:15:20;;;;;;;2.08;1.10;;;16.80;57.50;;;;;;5048117;28;20074;-62
2023/01/01 04:17:45;;;;;;;2.88;1.33;;;16.80;57.30;;;;;;5048342;28;20036;-62
2023/01/01 04:20:12;;;;;;;1.75;0.50;;;16.80;57.40;;;;;;5054301;28;20029;-62
2023/01/01 04:22:38;;;;;;;1.17;0.55;;;16.70;57.60;;;;;;5059616;28;20045;-62
2023/01/01 04:25:04;;;;;;;2.85;1.13;;;16.70;57.70;;;;;;5054692;28;20028;-59
2023/01/01 04:27:30;;;;;;;4.07;1.00;;;16.70;57.50;;;;;;5042520;28;20084;-59
2023/01/01 04:29:56;;;;;;;4.10;0.90;;;16.70;57.30;;;;;;5048734;28;20021;-62
2023/01/01 04:32:21;;;;;;;2.72;0.60;;;16.70;57.40;;;;;;5049834;28;20024;-62
2023/01/01 04:34:47;;;;;;;1.05;0.80;;;16.70;57.70;;;;;;5048802;28;20463;-62
2023/01/01 04:37:13;;;;;;;1.55;0.75;;;16.70;57.70;;;;;;5048573;28;20057;-59
2023/01/01 04:39:39;;;;;;;3.30;0.70;;;16.70;57.80;;;;;;5037876;28;20033;-60
2023/01/01 04:42:05;;;;;;;3.60;0.98;;;16.70;58.00;;;;;;5044612;28;20021;-59
2023/01/01 04:44:31;;;;;;;1.27;0.93;;;16.70;58.20;;;;;;5047684;28;20025;-59
2023/01/01 04:46:56;;;;;;;3.58;1.45;;;16.70;58.20;;;;;;5029873;28;20033;-59
2023/01/01 04:49:22;;;;;;;1.08;0.50;;;16.70;58.30;;;;;;5047062;28;20510;-60
2023/01/01 04:51:48;;;;;;;1.27;0.60;;;16.70;58.60;;;;;;5048964;28;20025;-59
2023/01/01 04:54:14;;;;;;;1.80;0.63;;;16.70;58.50;;;;;;5054971;28;20032;-61
2023/01/01 04:56:39;;;;;;;2.45;0.50;;;16.70;58.70;;;;;;5040730;28;20024;-59
2023/01/01 04:59:05;;;;;;;0.47;0.47;;;16.60;58.80;;;;;;5053660;28;20027;-59
2023/01/01 05:01:31;;;;;;;1.08;0.57;;;16.70;59.00;;;;;;5052512;28;20037;-59
2023/01/01 05:03:58;;;;;;;3.25;0.73;;;16.60;59.00;;;;;;5051742;28;20103;-62
2023/01/01 05:06:25;;;;;;;1.75;0.60;;;16.60;59.10;;;;;;5046955;28;20036;-62
2023/01/01 05:08:54;;;;;;;4.22;1.10;;;16.60;59.10;;;;;;5045363;28;20393;-62
2023/01/01 05:11:22;;;;;;;2.40;0.82;;;16.60;59.40;;;;;;5047118;28;20116;-62
2023/01/01 05:13:51;;;;;;;0.60;0.45;;;16.70;60.10;;;;;;5047230;28;20035;-62
2023/01/01 05:16:19;;;;;;;3.38;0.88;;;16.60;59.70;;;;;;5047886;28;20024;-62
2023/01/01 05:18:46;;;;;;;6.97;0.95;;;16.60;59.80;;;;;;5051999;28;20686;-62
2023/01/01 05:21:30;;;;;;;2.55;1.10;;;16.60;59.90;;;;;;5048871;28;20021;-62
2023/01/01 05:23:58;;;;;;;0.57;0.40;;;16.60;60.00;;;;;;5055111;28;20112;-62
2023/01/01 05:26:30;;;;;;;1.15;0.88;;;16.60;60.20;;;;;;5042052;28;20079;-62
2023/01/01 05:28:56;;;;;;;2.22;0.70;;;16.50;60.10;;;;;;5051172;28;20059;-62
2023/01/01 05:31:25;;;;;;;0.80;0.73;;;16.50;60.40;;;;;;5051917;28;20032;-63
2023/01/01 05:33:51;;;;;;;2.47;0.70;;;16.50;60.40;;;;;;5058612;28;20025;-59
2023/01/01 05:36:21;;;;;;;4.20;1.08;;;16.50;60.60;;;;;;5051756;28;20426;-62
2023/01/01 05:38:47;;;;;;;3.05;0.88;;;16.50;60.80;;;;;;5051372;28;20020;-59
2023/01/01 05:41:14;;;;;;;5.38;0.77;;;16.50;60.90;;;;;;5047330;28;20468;-59
2023/01/01 05:43:40;;;;;;;1.35;0.95;;;16.40;61.00;;;;;;5045366;28;20117;-62
2023/01/01 05:46:10;;;;;;;1.35;0.77;;;16.40;61.20;;;;;;5050690;28;20049;-59
2023/01/01 05:48:36;;;;;;;1.80;0.63;;;16.30;61.30;;;;;;5071789;28;20021;-62
2023/01/01 05:51:11;;;;;;;0.90;0.43;;;16.30;60.90;;;;;;5050777;28;20044;-59
2023/01/01 05:53:37;;;;;;;3.88;0.68;;;16.30;58.20;;;;;;5053280;28;20035;-61
2023/01/01 05:56:03;;;;;;;5.03;0.80;;;16.30;58.20;;;;;;5052458;28;20029;-62
2023/01/01 05:58:31;;;;;;;0.65;0.63;;;16.30;58.20;;;;;;5050698;28;20499;-60
2023/01/01 06:01:03;;;;;;;2.92;0.73;;;16.30;58.70;;;;;;5052420;28;20025;-62
2023/01/01 06:03:29;;;;;;;4.32;0.68;;;16.20;59.10;;;;;;5050747;28;20064;-59
2023/01/01 06:05:55;;;;;;;1.85;0.90;;;16.20;59.70;;;;;;5058631;28;20483;-62
2023/01/01 06:08:20;;;;;;;0.50;0.40;;;16.20;60.10;;;;;;5050966;28;20063;-59
2023/01/01 06:10:46;;;;;;;0.93;0.70;;;16.10;60.40;;;;;;5052280;28;20041;-62
2023/01/01 06:13:11;;;;;;;1.45;0.95;;;16.10;60.50;;;;;;5053762;28;20099;-62
2023/01/01 06:15:37;;;;;;;2.53;0.70;;;16.10;59.50;;;;;;5052251;28;20396;-62
2023/01/01 06:18:03;;;;;;;15.27;0.93;;;16.10;59.10;;;;;;5048886;28;20025;-62
2023/01/01 06:20:29;;;;;;;5.25;1.00;;;16.10;58.90;;;;;;5051047;28;20095;-59
2023/01/01 06:22:55;;;;;;;2.78;0.57;;;16.10;59.00;;;;;;5052108;28;20037;-62
2023/01/01 06:25:20;;;;;;;4.35;0.75;;;16.00;58.80;;;;;;5050701;28;20377;-59
2023/01/01 06:27:46;;;;;;;2.58;1.38;;;16.00;58.90;;;;;;5050680;28;20032;-59
2023/01/01 06:30:12;;;;;;;2.20;0.40;;;16.00;59.10;;;;;;5051307;28;20064;-59
2023/01/01 06:32:37;;;;;;;2.05;0.65;;;16.00;59.50;;;;;;5050819;28;20025;-59
2023/01/01 06:35:03;;;;;;;1.67;0.77;;;16.00;59.50;;;;;;5049553;28;20447;-59
2023/01/01 06:37:29;;;;;;;1.25;0.93;;;16.00;59.80;;;;;;5050796;28;20029;-62
2023/01/01 06:39:55;;;;;;;4.38;0.75;;;16.00;60.10;;;;;;5047779;28;20037;-62
2023/01/01 06:42:21;;;;;;;4.95;0.50;;;16.00;60.40;;;;;;5051482;28;20028;-59
2023/01/01 06:44:46;;;;;;;0.43;0.40;;;15.90;60.90;;;;;;5056747;28;20044;-59
2023/01/01 06:47:12;;;;;;;2.50;0.50;;;15.90;61.20;;;;;;5050247;28;20116;-62
2023/01/01 06:49:38;;;;;;;0.47;0.47;;;15.80;61.50;;;;;;5060000;28;21220;-59
2023/01/01 06:52:04;;;;;;;0.95;0.50;;;15.80;61.70;;;;;;5047911;28;20032;-59
2023/01/01 06:54:29;;;;;;;2.13;0.82;;;15.70;61.90;;;;;;5057423;28;20037;-62
2023/01/01 06:56:55;;;;;;;2.50;0.77;;;15.70;62.00;;;;;;5050585;28;20021;-59
2023/01/01 06:59:21;;;;;;;1.92;0.68;;;15.70;62.70;;;;;;5044354;28;20033;-59
2023/01/01 07:01:46;;;;;;;0.70;0.52;;;15.70;62.30;;;;;;5051167;28;20438;-62
2023/01/01 07:04:15;;;;;;;4.53;0.50;;;15.70;62.40;;;;;;5075871;28;20029;-59
2023/01/01 07:06:41;;;;;;;1.30;0.85;;;15.60;62.50;;;;;;5049836;28;20029;-62
2023/01/01 07:09:08;;;;;;;3.50;0.70;;;15.60;62.70;;;;;;5049262;28;20036;-58
2023/01/01 07:11:34;;;;;;;2.22;0.60;;;15.60;62.60;;;;;;5049306;28;20037;-62
2023/01/01 07:14:00;;;;;;;1.77;0.63;;;15.50;62.20;;;;;;5051033;28;20044;-62
2023/01/01 07:16:26;;;;;;;1.02;0.80;;;15.50;61.80;;;;;;5051124;28;20036;-62
2023/01/01 07:18:52;;;;;;;0.30;0.30;;;15.40;61.90;;;;;;5047183;28;20036;-59
2023/01/01 07:21:23;;;;;;;0.93;0.65;;;15.30;61.20;;;;;;5050696;28;20021;-62
2023/01/01 07:23:49;;;;;;;1.13;0.70;;;15.20;61.70;;;;;;5052283;28;20045;-59
2023/01/01 07:26:15;;;;;;;1.63;0.90;;;15.10;61.60;;;;;;5049637;28;20164;-62
2023/01/01 07:28:41;;;;;;;0.20;0.20;;;15.00;61.80;;;;;;5049605;28;20112;-61
2023/01/01 07:31:08;;;;;;;0.28;0.28;;;14.90;62.00;;;;;;5050760;28;20455;-59
2023/01/01 07:33:33;;;;;;;2.15;0.30;;;14.90;62.40;;;;;;5049209;28;20036;-59
2023/01/01 07:35:59;;;;;;;0.77;0.40;;;14.80;62.80;;;;;;5049799;28;20029;-62
2023/01/01 07:38:25;;;;;;;5.05;1.08;;;14.70;63.20;;;;;;5056517;28;20048;-63
2023/01/01 07:40:50;;;;;;;0.50;0.50;;;14.70;64.00;;;;;;5041124;28;20585;-63
2023/01/01 07:43:16;;;;;;;7.63;0.55;;;14.60;64.70;;;;;;5047108;28;20091;-59
2023/01/01 07:45:42;;;;;;;0.95;0.45;;;14.50;65.10;;;;;;5042790;28;20119;-59
2023/01/01 07:48:14;;;;;;;1.67;0.70;;;14.40;65.60;;;;;;5050270;28;20032;-63
2023/01/01 07:50:40;;;;;;;1.55;0.38;;;14.30;66.20;;;;;;5049616;28;20052;-63
2023/01/01 07:53:06;;;;;;;1.42;0.38;;;14.20;66.40;;;;;;5055461;28;20037;-64
2023/01/01 07:55:35;;;;;;;0.30;0.30;;;14.10;66.50;;;;;;5044853;28;20462;-59
2023/01/01 07:58:00;;;;;;;0.45;0.30;;;14.00;66.60;;;;;;5040642;28;20024;-60
2023/01/01 08:00:27;;;;;;;0.90;0.38;;;14.00;66.70;;;;;;5051576;28;20407;-64
2023/01/01 08:02:53;;;;;;;0.28;0.25;;;14.10;66.80;;;;;;5051694;28;20032;-59
2023/01/01 08:05:18;;;;;;;1.30;0.40;;;14.00;66.80;;;;;;5043302;28;20087;-64
2023/01/01 08:07:46;;;;;;;0.20;0.20;;;14.00;66.90;;;;;;5048091;28;20056;-63
2023/01/01 08:10:12;;;;;;;0.40;0.28;;;14.10;67.00;;;;;;5048024;28;20052;-60
2023/01/01 08:12:38;;;;;;;0.43;0.30;;;14.00;66.90;;;;;;5048401;28;20668;-64
2023/01/01 08:15:04;;;;;;;0.30;0.30;;;14.00;67.00;;;;;;5059666;28;20048;-60
2023/01/01 08:17:30;;;;;;;0.55;0.50;;;14.10;67.10;;;;;;5045874;28;20029;-64
2023/01/01 08:19:56;;;;;;;0.65;0.60;;;14.10;67.10;;;;;;5031032;28;20029;-64
2023/01/01 08:22:24;;;;;;;1.13;0.32;;;14.00;67.10;;;;;;5049360;28;20087;-64
2023/01/01 08:24:50;;;;;;;1.25;0.50;;;14.00;67.70;;;;;;5040677;28;20029;-62
2023/01/01 08:27:16;;;;;;;0.80;0.68;;;14.00;67.30;;;;;;5044279;28;20459;-64
2023/01/01 08:29:43;;;;;;;0.55;0.45;;;14.00;67.20;;;;;;5046708;28;20021;-65
2023/01/01 08:32:09;;;;;;;0.95;0.50;;;14.00;67.20;;;;;;5036767;28;20029;-64
2023/01/01 08:34:34;;;;;;;0.43;0.43;;;14.00;67.20;;;;;;5050320;28;20059;-64
2023/01/01 08:37:00;;;;;;;0.50;0.32;;;14.00;67.20;;;;;;5043835;28;20029;-64
2023/01/01 08:39:26;;;;;;;0.80;0.65;;;14.10;67.20;;;;;;5037761;28;20487;-60
2023/01/01 08:41:52;;;;;;;2.55;0.82;;;14.10;67.10;;;;;;5039257;28;20037;-60
2023/01/01 08:44:18;;;;;;;0.50;0.35;;;14.00;67.00;;;;;;5042033;28;20033;-64
2023/01/01 08:46:43;;;;;;;0.22;0.22;;;14.10;67.00;;;;;;5040461;28;20087;-65
2023/01/01 08:49:09;;;;;;;0.30;0.17;;;14.10;67.00;;;;;;5048761;28;20021;-65
2023/01/01 08:51:35;;;;;;;1.38;0.50;;;14.10;66.80;;;;;;5053309;28;20499;-61
2023/01/01 08:54:01;;;;;;;1.10;0.50;;;14.10;66.70;;;;;;5058218;28;20058;-61
2023/01/01 08:56:26;;;;;;;1.75;1.13;;;14.10;66.70;;;;;;5048169;28;20025;-67
2023/01/01 08:58:52;;;;;;;2.47;0.55;;;14.10;66.70;;;;;;5046667;28;20384;-66
2023/01/01 09:01:20;;;;;;;1.67;0.30;;;14.10;66.60;;;;;;5044711;28;20033;-65
2023/01/01 09:03:49;;;;;;;1.13;0.75;;;14.10;66.60;;;;;;5041751;28;20120;-61
2023/01/01 09:06:15;;;;;;;3.35;1.02;;;14.20;66.70;;;;;;5044099;28;20519;-66
2023/01/01 09:08:40;;;;;;;0.40;0.40;;;14.20;66.90;;;;;;5043875;28;20504;-61
2023/01/01 09:11:06;;;;;;;5.13;0.57;;;14.20;67.00;;;;;;5050718;28;20032;-61
2023/01/01 09:13:33;;;;;;;1.15;0.40;;;14.20;67.00;;;;;;5047335;28;20036;-64
2023/01/01 09:15:58;;;;;;;1.23;0.52;;;14.20;67.10;;;;;;5052186;28;20502;-61
2023/01/01 09:18:24;;;;;;;1.50;0.68;;;14.30;67.10;;;;;;5048504;28;20025;-61
2023/01/01 09:20:50;;;;;;;1.05;0.50;;;14.30;67.30;;;;;;5045694;28;20034;-67
2023/01/01 09:23:16;;;;;;;2.83;0.63;;;14.30;67.30;;;;;;5041948;28;20680;-68
2023/01/01 09:25:41;;;;;;;5.50;0.82;;;14.30;67.40;;;;;;5047558;28;20059;-68
2023/01/01 09:28:11;;;;;;;0.65;0.65;;;14.30;67.80;;;;;;5043748;28;20040;-67
2023/01/01 09:30:37;;;;;;;0.63;0.40;;;14.30;68.00;;;;;;5046306;28;20029;-65
2023/01/01 09:33:03;;;;;;;2.25;0.38;;;14.30;68.20;;;;;;5048780;28;20368;-64
2023/01/01 09:35:30;;;;;;;1.75;0.82;;;14.40;68.30;;;;;;5048255;28;20369;-60
2023/01/01 09:37:56;;;;;;;0.20;0.20;;;14.30;68.50;;;;;;5048793;28;20024;-64
2023/01/01 09:40:45;;;;;;;0.80;0.30;;;14.30;68.70;;;;;;5051858;28;20422;-64
2023/01/01 09:43:26;;;;;;;1.77;0.52;;;14.30;68.80;;;;;;5042829;28;20467;-60
2023/01/01 09:46:05;;;;;;;1.00;0.80;;;14.30;69.10;;;;;;5044882;28;20396;-61
2023/01/01 09:48:31;;;;;;;0.50;0.50;;;14.30;69.40;;;;;;5047785;28;20029;-64
2023/01/01 09:51:01;;;;;;;4.85;0.57;;;14.30;69.50;;;;;;5046959;28;20104;-64
2023/01/01 09:53:39;;;;;;;0.93;0.60;;;14.30;69.70;;;;;;5050835;28;20526;-65
2023/01/01 09:56:05;;;;;;;1.02;0.68;;;14.30;69.80;;;;;;5044064;28;20033;-62
2023/01/01 09:58:35;;;;;;;0.90;0.40;;;14.30;70.10;;;;;;5044307;28;20503;-61
2023/01/01 10:01:27;;;;;;;2.95;0.60;;;14.30;70.10;;;;;;5048479;28;20032;-62
2023/01/01 10:04:11;;;;;;;1.13;0.80;;;14.30;70.20;;;;;;5028415;28;20056;-67
2023/01/01 10:06:46;;;;;;;1.65;0.52;;;14.40;70.10;;;;;;5040962;28;20376;-67
2023/01/01 10:09:40;;;;;;;0.77;0.60;;;14.30;70.30;;;;;;5045091;28;20741;-64
2023/01/01 10:12:08;;;;;;;4.95;0.93;;;14.30;70.50;;;;;;5035040;28;20055;-60
2023/01/01 10:14:48;;;;;;;1.25;0.52;;;14.30;70.60;;;;;;5040622;28;20037;-60
2023/01/01 10:17:30;;;;;;;1.48;0.52;;;14.40;70.80;;;;;;5038522;28;20026;-61
2023/01/01 10:20:00;;;;;;;2.85;1.23;;;14.30;71.30;;;;;;5032724;28;20026;-61
2023/01/01 10:22:41;;;;;;;2.90;0.93;;;14.30;71.40;;;;;;5041908;28;20048;-61
2023/01/01 10:25:13;;;;;;;2.95;0.50;;;14.30;71.80;;;;;;5045758;28;20384;-61
2023/01/01 10:27:45;;;;;;;3.95;1.05;;;14.30;72.00;;;;;;5043078;28;20063;-60
2023/01/01 10:30:20;;;;;;;1.15;0.98;;;14.30;72.30;;;;;;5049364;28;20023;-60
2023/01/01 10:32:48;;;;;;;0.43;0.43;;;14.30;72.60;;;;;;5038417;28;20033;-60
2023/01/01 10:35:19;;;;;;;0.77;0.68;;;14.20;73.80;;;;;;5036394;28;20370;-61
2023/01/01 10:37:45;;;;;;;1.63;0.65;;;14.20;74.60;;;;;;5046722;28;20045;-60
2023/01/01 10:40:18;;;;;;;2.50;0.70;;;14.10;75.10;;;;;;5033732;28;20033;-61
2023/01/01 10:42:48;;;;;;;;;;;14.00;75.80;;;;;;5041629;28;20033;-60
2023/01/01 10:45:16;;;;;;;2.22;0.93;;;13.90;76.40;;;;;;5050286;28;19919;-60
2023/01/01 10:48:12;;;;;;;5.57;0.90;;;13.80;76.60;;;;;;5037104;28;20504;-60
2023/01/01 10:50:42;;;;;;;2.58;0.82;;;13.90;76.70;;;;;;5036088;28;20024;-63
2023/01/01 10:53:31;;;;;;;3.42;0.98;;;13.80;76.60;;;;;;5051855;28;20391;-63
2023/01/01 10:56:17;;;;;;;3.58;0.82;;;13.90;76.40;;;;;;5036694;28;20524;-63
2023/01/01 10:58:47;;;;;;;0.70;0.65;;;13.90;76.40;;;;;;5040475;28;20106;-60
2023/01/01 11:01:26;;;;;;;2.25;0.90;;;13.80;76.40;;;;;;5056397;28;20052;-63
2023/01/01 11:03:58;;;;;;;2.25;1.08;;;13.80;76.60;;;;;;5035749;28;20029;-60
2023/01/01 11:06:26;;;;;;;1.17;0.93;;;13.70;77.00;;;;;;5036701;28;20461;-63
2023/01/01 11:08:58;;;;;;;2.70;1.02;;;13.60;77.20;;;;;;5044369;28;20082;-63
2023/01/01 11:11:40;;;;;;;2.37;0.60;;;13.60;77.40;;;;;;5050557;28;20094;-64
2023/01/01 11:14:21;;;;;;;2.58;0.85;;;13.60;77.50;;;;;;5050723;28;20432;-63
2023/01/01 11:16:48;;;;;;;5.88;1.67;;;13.60;77.70;;;;;;5041383;28;20111;-63
2023/01/01 11:19:39;;;;;;;2.70;0.95;;;13.60;77.70;;;;;;5043451;28;20037;-63
2023/01/01 11:22:06;;;;;;;2.50;0.93;;;13.60;77.80;;;;;;5038844;28;20040;-63
2023/01/01 11:24:35;;;;;;;3.22;0.90;;;13.60;77.90;;;;;;5037408;28;20488;-64
2023/01/01 11:27:18;;;;;;;1.73;0.73;;;13.60;78.00;;;;;;5045540;28;20518;-63
2023/01/01 11:29:44;;;;;;;1.33;0.60;;;13.70;77.60;;;;;;5042176;28;20025;-63
2023/01/01 11:32:18;;;;;;;3.90;1.20;;;13.80;77.40;;;;;;5045761;28;20025;-63
2023/01/01 11:34:48;;;;;;;2.92;0.43;;;13.90;77.00;;;;;;5039367;28;20033;-63
2023/01/01 11:37:26;;;;;;;1.23;0.80;;;13.90;77.00;;;;;;5043449;28;20144;-63
2023/01/01 11:39:54;;;;;;;3.28;1.48;;;14.00;77.10;;;;;;5037653;28;20330;-63
2023/01/01 11:42:23;;;;;;;10.07;1.10;;;14.00;77.10;;;;;;5050182;28;20076;-60
2023/01/01 11:44:57;;;;;;;2.75;1.33;;;14.00;76.90;;;;;;5028279;28;20033;-63
2023/01/01 11:47:38;;;;;;;3.05;0.70;;;14.10;76.90;;;;;;5042062;28;20499;-65
2023/01/01 11:50:30;;;;;;;3.50;0.88;;;14.20;76.80;;;;;;5031467;28;20456;-60
2023/01/01 11:53:15;;;;;;;2.00;0.70;;;14.20;76.60;;;;;;5032351;28;20045;-64
2023/01/01 11:56:01;;;;;;;2.28;0.65;;;14.20;76.70;;;;;;5040636;28;20025;-64
2023/01/01 11:58:33;;;;;;;1.15;0.93;;;14.30;76.80;;;;;;5033006;28;20091;-64
2023/01/01 12:01:25;;;;;;;0.88;0.82;;;14.20;76.80;;;;;;5036515;28;20035;-61
2023/01/01 12:04:05;;;;;;;2.05;0.90;;;14.30;76.90;;;;;;5046548;28;20115;-63
2023/01/01 12:06:39;;;;;;;1.60;0.90;;;14.30;76.70;;;;;;5041266;28;20374;-63
2023/01/01 12:09:35;;;;;;;0.90;0.70;;;14.40;76.70;;;;;;5046822;28;20016;-60
2023/01/01 12:12:22;;;;;;;1.65;0.95;;;14.40;76.60;;;;;;5045412;28;20028;-60
2023/01/01 12:15:13;;;;;;;1.10;0.75;;;14.50;76.80;;;;;;5051629;28;20021;-63
2023/01/01 12:18:05;;;;;;;3.10;0.90;;;14.60;76.60;;;;;;5042617;28;20035;-61
2023/01/01 12:20:39;;;;;;;1.17;0.98;;;14.80;76.40;;;;;;5037576;28;20036;-61
2023/01/01 12:23:08;;;;;;;2.95;1.02;;;15.00;75.90;;;;;;5034423;28;20112;-61
2023/01/01 12:25:45;;;;;;;4.18;1.10;;;15.10;75.60;;;;;;5041629;28;20032;-61
2023/01/01 12:28:24;;;;;;;2.08;1.05;;;15.10;75.50;;;;;;5041652;28;20021;-61
2023/01/01 12:31:00;;;;;;;3.75;1.40;;;15.00;75.70;;;;;;5049917;28;20021;-61
2023/01/01 12:33:41;;;;;;;1.58;0.93;;;14.90;75.80;;;;;;5045707;28;20120;-60
2023/01/01 12:36:22;;;;;;;2.00;0.95;;;14.90;76.00;;;;;;5054664;28;20032;-65
2023/01/01 12:39:00;;;;;;;1.80;1.38;;;15.10;76.10;;;;;;5043362;28;20103;-64
2023/01/01 12:41:54;;;;;;;4.25;1.00;;;15.80;75.30;;;;;;5050957;28;20446;-64
2023/01/01 12:44:29;;;;;;;2.80;1.58;;;17.20;71.60;;;;;;5050289;28;20033;-61
2023/01/01 12:47:03;;;;;;;5.57;1.77;;;17.90;68.90;;;;;;5037797;28;20443;-60
2023/01/01 12:49:53;;;;;;;2.83;1.25;;;18.30;66.10;;;;;;5047454;28;20035;-61
2023/01/01 12:52:31;;;;;;;2.15;1.20;;;18.10;65.90;;;;;;5049013;28;20037;-61
2023/01/01 12:55:34;;;;;;;1.52;0.90;;;17.50;67.20;;;;;;5044432;28;20107;-61
2023/01/01 12:58:53;;;;;;;2.80;1.20;;;17.00;68.10;;;;;;5098186;27;20113;-59
2023/01/01 13:01:23;;;;;;;2.17;0.93;;;16.90;68.80;;;;;;5109374;28;20066;-59
2023/01/01 13:03:56;;;;;;;3.83;1.33;;;16.70;69.10;;;;;;5087017;28;20034;-64
2023/01/01 13:06:45;;;;;;;9.77;1.52;;;16.50;69.50;;;;;;5090366;28;20035;-59
2023/01/01 13:09:24;;;;;;;5.28;0.75;;;16.20;70.10;;;;;;5090175;28;20028;-59
2023/01/01 13:11:56;;;;;;;1.67;0.88;;;16.10;70.80;;;;;;5108634;28;20354;-59